createdAt,value
2022-08-28T00:02:02.499Z,19.53
2022-08-28T00:05:06.276Z,19.63
2022-08-28T00:08:10.581Z,19.74
2022-08-28T00:11:13.080Z,19.79
2022-08-28T00:14:16.658Z,19.90
2022-08-28T00:17:18.905Z,19.92
2022-08-28T00:20:21.210Z,20.01
2022-08-28T00:23:24.157Z,19.99
2022-08-28T00:26:47.319Z,19.98
2022-08-28T00:29:51.517Z,19.87
2022-08-28T00:32:55.372Z,19.59
2022-08-28T00:35:58.100Z,19.37
2022-08-28T00:39:00.558Z,19.42
2022-08-28T00:42:02.844Z,19.55
2022-08-28T00:45:06.533Z,19.69
2022-08-28T00:48:08.803Z,19.72
2022-08-28T00:51:31.047Z,19.67
2022-08-28T00:54:35.985Z,19.55
2022-08-28T00:57:45.269Z,19.33
2022-08-28T01:00:47.089Z,19.46
2022-08-28T01:03:48.875Z,19.55
2022-08-28T01:06:54.611Z,19.62
2022-08-28T01:09:56.970Z,19.66
2022-08-28T01:12:59.469Z,19.68
2022-08-28T01:16:03.759Z,19.56
2022-08-28T01:19:10.461Z,19.16
2022-08-28T01:22:29.693Z,19.20
2022-08-28T01:25:36.623Z,19.42
2022-08-28T01:28:38.752Z,19.50
2022-08-28T01:31:41.242Z,19.36
2022-08-28T01:34:43.186Z,19.52
2022-08-28T01:37:48.135Z,19.56
2022-08-28T01:40:53.434Z,19.48
2022-08-28T01:43:56.228Z,19.35
2022-08-28T01:46:58.586Z,19.26
2022-08-28T01:50:00.535Z,19.20
2022-08-28T01:53:06.636Z,19.07
2022-08-28T01:56:15.894Z,19.00
2022-08-28T01:59:18.348Z,18.91
2022-08-28T02:02:20.737Z,18.88
2022-08-28T02:05:24.856Z,18.90
2022-08-28T02:08:27.034Z,18.73
2022-08-28T02:11:30.576Z,18.62
2022-08-28T02:14:33.417Z,18.61
2022-08-28T02:17:35.348Z,18.66
2022-08-28T02:20:38.055Z,18.80
2022-08-28T02:23:42.710Z,18.85
2022-08-28T02:26:45.220Z,18.57
2022-08-28T02:29:51.130Z,18.37
2022-08-28T02:37:08.650Z,18.28
2022-08-28T02:40:20.787Z,18.32
2022-08-28T02:43:43.645Z,18.20
2022-08-28T02:46:53.960Z,18.16
2022-08-28T02:50:06.748Z,18.36
2022-08-28T02:53:23.998Z,18.51
2022-08-28T02:56:35.976Z,18.68
2022-08-28T02:59:44.899Z,18.70
2022-08-28T03:02:59.083Z,18.75
2022-08-28T03:06:09.077Z,18.83
2022-08-28T03:09:20.455Z,18.98
2022-08-28T03:12:25.003Z,19.06
2022-08-28T03:15:27.124Z,19.16
2022-08-28T03:18:30.752Z,19.18
2022-08-28T03:21:35.071Z,19.19
2022-08-28T03:24:37.890Z,19.26
2022-08-28T03:27:43.530Z,19.22
2022-08-28T03:30:46.094Z,19.25
2022-08-28T03:33:49.246Z,19.25
2022-08-28T03:36:51.588Z,19.32
2022-08-28T03:39:59.537Z,19.39
2022-08-28T03:43:03.954Z,19.39
2022-08-28T03:46:19.769Z,19.36
2022-08-28T03:49:23.157Z,19.39
2022-08-28T03:52:35.547Z,19.40
2022-08-28T03:55:43.298Z,19.49
2022-08-28T03:58:45.297Z,19.47
2022-08-28T04:01:48.831Z,19.45
2022-08-28T04:04:51.987Z,19.47
2022-08-28T04:07:56.248Z,19.46
2022-08-28T04:10:59.724Z,19.38
2022-08-28T04:14:02.442Z,19.39
2022-08-28T04:17:05.518Z,19.45
2022-08-28T04:20:12.187Z,19.47
2022-08-28T04:23:13.994Z,19.36
2022-08-28T04:26:20.670Z,19.48
2022-08-28T04:29:23.331Z,19.42
2022-08-28T04:32:26.259Z,19.51
2022-08-28T04:35:29.200Z,19.51
2022-08-28T04:38:33.407Z,19.54
2022-08-28T04:41:40.278Z,19.59
2022-08-28T04:44:43.948Z,19.57
2022-08-28T04:47:46.141Z,19.52
2022-08-28T04:50:50.974Z,19.60
2022-08-28T04:53:53.235Z,19.63
2022-08-28T04:56:55.549Z,19.74
2022-08-28T04:59:59.162Z,19.73
2022-08-28T05:03:16.121Z,19.75
2022-08-28T05:06:18.499Z,19.94
2022-08-28T05:09:21.275Z,20.13
2022-08-28T05:12:24.502Z,20.24
2022-08-28T05:15:28.115Z,20.13
2022-08-28T05:18:32.648Z,19.94
2022-08-28T05:21:35.591Z,19.96
2022-08-28T05:24:38.582Z,20.07
2022-08-28T05:27:43.108Z,20.15
2022-08-28T05:30:45.814Z,20.16
2022-08-28T05:33:52.598Z,20.25
2022-08-28T05:36:54.690Z,20.34
2022-08-28T05:39:57.637Z,20.47
2022-08-28T05:43:00.818Z,20.61
2022-08-28T05:46:10.769Z,20.74
2022-08-28T05:49:16.118Z,20.75
2022-08-28T05:52:18.729Z,20.86
2022-08-28T05:55:59.521Z,20.91
2022-08-28T05:59:10.993Z,21.09
2022-08-28T06:02:24.705Z,21.19
2022-08-28T06:05:27.412Z,21.28
2022-08-28T06:08:30.399Z,21.43
2022-08-28T06:11:32.894Z,21.41
2022-08-28T06:14:35.721Z,21.63
2022-08-28T06:17:38.247Z,21.81
2022-08-28T06:20:43.574Z,22.07
2022-08-28T06:23:46.201Z,21.97
2022-08-28T06:26:49.679Z,22.07
2022-08-28T06:29:52.184Z,21.90
2022-08-28T06:32:55.348Z,22.02
2022-08-28T06:35:58.142Z,22.19
2022-08-28T06:39:02.352Z,21.98
2022-08-28T06:42:06.054Z,22.01
2022-08-28T06:45:08.850Z,22.14
2022-08-28T06:48:16.949Z,22.27
2022-08-28T06:51:20.465Z,22.22
2022-08-28T06:54:27.099Z,22.12
2022-08-28T06:57:31.834Z,21.93
2022-08-28T07:00:35.659Z,21.79
2022-08-28T07:03:42.523Z,21.73
2022-08-28T07:06:53.830Z,21.68
2022-08-28T07:09:56.515Z,21.74
2022-08-28T07:13:01.547Z,21.85
2022-08-28T07:16:04.884Z,21.86
2022-08-28T07:19:09.996Z,21.98
2022-08-28T07:22:12.843Z,21.99
2022-08-28T07:25:18.392Z,22.08
2022-08-28T07:28:21.260Z,22.22
2022-08-28T07:31:26.579Z,22.20
2022-08-28T07:34:39.138Z,21.89
2022-08-28T07:37:44.493Z,21.80
2022-08-28T07:40:49.848Z,21.81
2022-08-28T07:44:11.173Z,21.57
2022-08-28T07:47:14.832Z,21.28
2022-08-28T07:50:17.582Z,21.22
2022-08-28T07:53:20.502Z,21.05
2022-08-28T07:56:23.071Z,20.90
2022-08-28T07:59:27.598Z,20.71
2022-08-28T08:02:34.037Z,20.73
2022-08-28T08:05:36.245Z,20.70
2022-08-28T08:08:41.092Z,20.69
2022-08-28T08:11:44.450Z,20.81
2022-08-28T08:14:50.371Z,20.82
2022-08-28T08:17:53.416Z,20.92
2022-08-28T08:20:57.151Z,20.88
2022-08-28T08:24:02.492Z,20.78
2022-08-28T08:27:07.084Z,20.80
2022-08-28T08:30:10.766Z,20.80
2022-08-28T08:33:14.242Z,20.90
2022-08-28T08:36:18.465Z,20.77
2022-08-28T08:39:22.292Z,21.07
2022-08-28T08:42:27.183Z,20.95
2022-08-28T08:45:31.663Z,21.18
2022-08-28T08:48:35.337Z,21.17
2022-08-28T08:52:16.168Z,21.04
2022-08-28T08:55:36.312Z,21.09
2022-08-28T08:58:48.966Z,21.36
2022-08-28T09:01:56.466Z,21.49
2022-08-28T09:05:08.292Z,21.66
2022-08-28T09:08:18.061Z,21.70
2022-08-28T09:11:41.200Z,21.71
2022-08-28T09:15:10.575Z,22.01
2022-08-28T09:18:15.364Z,22.21
2022-08-28T09:21:33.076Z,22.40
2022-08-28T09:24:37.815Z,22.41
2022-08-28T09:27:53.390Z,22.57
2022-08-28T09:31:11.722Z,22.62
2022-08-28T09:34:38.650Z,22.65
2022-08-28T09:37:43.312Z,22.89
2022-08-28T09:41:05.664Z,23.20
2022-08-28T09:44:15.433Z,23.39
2022-08-28T09:47:54.630Z,23.35
2022-08-28T09:51:08.289Z,23.60
2022-08-28T09:54:23.641Z,23.75
2022-08-28T09:57:26.625Z,23.92
2022-08-28T10:00:34.039Z,23.81
2022-08-28T10:04:05.121Z,23.98
2022-08-28T10:07:29.352Z,24.22
2022-08-28T10:10:42.544Z,24.22
2022-08-28T10:14:20.101Z,24.26
2022-08-28T10:17:41.564Z,24.27
2022-08-28T10:21:02.832Z,24.65
2022-08-28T10:24:14.257Z,24.50
2022-08-28T10:27:36.359Z,24.78
2022-08-28T10:30:45.130Z,24.94
2022-08-28T10:34:05.343Z,25.27
2022-08-28T10:37:23.673Z,25.23
2022-08-28T10:41:02.072Z,25.19
2022-08-28T10:44:05.886Z,25.36
2022-08-28T10:47:09.577Z,25.75
2022-08-28T10:50:52.593Z,25.80
2022-08-28T10:54:04.265Z,26.01
2022-08-28T10:57:36.125Z,26.56
2022-08-28T11:00:44.408Z,26.14
2022-08-28T11:03:50.646Z,25.91
2022-08-28T11:06:59.284Z,25.80
2022-08-28T11:10:20.789Z,25.93
2022-08-28T11:13:46.817Z,26.51
2022-08-28T11:16:50.308Z,26.64
2022-08-28T11:20:25.653Z,26.44
2022-08-28T11:23:39.142Z,26.70
2022-08-28T11:26:49.623Z,26.74
2022-08-28T11:30:11.334Z,26.32
2022-08-28T11:33:36.306Z,26.06
2022-08-28T11:36:38.720Z,26.05
2022-08-28T11:39:42.193Z,26.25
2022-08-28T11:42:48.978Z,25.75
2022-08-28T11:45:55.286Z,25.88
2022-08-28T11:48:58.782Z,25.98
2022-08-28T11:52:10.333Z,26.46
2022-08-28T11:55:33.669Z,26.46
2022-08-28T11:58:50.560Z,26.61
2022-08-28T12:01:52.883Z,26.65
2022-08-28T12:04:55.036Z,26.53
2022-08-28T12:07:58.242Z,27.12
2022-08-28T12:11:00.403Z,27.49
2022-08-28T12:14:02.573Z,27.40
2022-08-28T12:17:09.962Z,27.42
2022-08-28T12:20:26.626Z,27.57
2022-08-28T12:23:31.888Z,27.42
2022-08-28T12:26:38.694Z,27.28
2022-08-28T12:29:52.593Z,27.48
2022-08-28T12:33:13.572Z,28.11
2022-08-28T12:36:17.585Z,28.18
2022-08-28T12:39:19.596Z,27.78
2022-08-28T12:42:27.249Z,27.46
2022-08-28T12:45:52.386Z,27.54
2022-08-28T12:49:00.699Z,27.87
2022-08-28T12:52:18.191Z,27.52
2022-08-28T12:55:24.464Z,27.30
2022-08-28T12:58:32.515Z,27.63
2022-08-28T13:01:35.756Z,27.44
2022-08-28T13:04:43.173Z,27.17
2022-08-28T13:07:48.902Z,27.28
2022-08-28T13:10:52.275Z,27.09
2022-08-28T13:13:54.421Z,26.82
2022-08-28T13:16:57.467Z,26.65
2022-08-28T13:20:07.655Z,26.05
2022-08-28T13:23:30.936Z,26.44
2022-08-28T13:26:35.694Z,26.28
2022-08-28T13:29:39.871Z,26.41
2022-08-28T13:32:56.589Z,26.58
2022-08-28T13:36:20.279Z,26.37
2022-08-28T13:39:23.366Z,26.36
2022-08-28T13:42:25.694Z,26.29
2022-08-28T13:45:31.577Z,26.48
2022-08-28T13:48:45.751Z,26.47
2022-08-28T13:51:48.989Z,26.76
2022-08-28T13:54:56.375Z,26.67
2022-08-28T13:58:00.524Z,26.56
2022-08-28T14:01:04.589Z,26.62
2022-08-28T14:04:07.893Z,26.24
2022-08-28T14:07:11.919Z,26.37
2022-08-28T14:10:14.408Z,26.28
2022-08-28T14:13:17.809Z,25.81
2022-08-28T14:16:20.259Z,25.90
2022-08-28T14:19:23.006Z,26.09
2022-08-28T14:22:25.215Z,25.95
2022-08-28T14:25:27.522Z,26.21
2022-08-28T14:28:30.663Z,26.24
2022-08-28T14:31:36.903Z,26.34
2022-08-28T14:34:43.854Z,26.50
2022-08-28T14:37:47.270Z,26.46
2022-08-28T14:40:49.591Z,26.70
2022-08-28T14:43:54.956Z,27.20
2022-08-28T14:46:57.731Z,26.85
2022-08-28T14:50:00.883Z,26.97
2022-08-28T14:53:06.633Z,27.00
2022-08-28T14:56:14.505Z,26.89
2022-08-28T14:59:24.489Z,26.93
2022-08-28T15:02:27.769Z,26.68
2022-08-28T15:05:33.528Z,26.94
2022-08-28T15:08:38.299Z,27.04
2022-08-28T15:11:41.725Z,26.82
2022-08-28T15:14:51.362Z,26.32
2022-08-28T15:18:03.394Z,26.23
2022-08-28T15:21:08.168Z,26.46
2022-08-28T15:24:11.261Z,26.27
2022-08-28T15:27:13.379Z,26.03
2022-08-28T15:30:18.444Z,25.74
2022-08-28T15:33:21.152Z,25.68
2022-08-28T15:36:24.750Z,25.50
2022-08-28T15:39:47.070Z,25.41
2022-08-28T15:42:50.497Z,25.23
2022-08-28T15:45:56.068Z,25.00
2022-08-28T15:48:59.383Z,24.95
2022-08-28T15:52:01.795Z,24.74
2022-08-28T15:55:07.848Z,24.79
2022-08-28T15:58:13.737Z,24.66
2022-08-28T16:01:16.958Z,24.66
2022-08-28T16:04:19.589Z,24.72
2022-08-28T16:07:23.465Z,24.72
2022-08-28T16:10:26.272Z,24.68
2022-08-28T16:13:28.814Z,24.49
2022-08-28T16:16:31.671Z,24.15
2022-08-28T16:19:34.849Z,24.22
2022-08-28T16:22:44.529Z,24.01
2022-08-28T16:25:47.753Z,23.99
2022-08-28T16:28:50.210Z,23.82
2022-08-28T16:31:53.820Z,23.62
2022-08-28T16:34:57.489Z,23.36
2022-08-28T17:17:20.662Z,22.25
2022-08-28T17:20:41.349Z,22.16
2022-08-28T17:23:46.887Z,22.17
2022-08-28T17:26:49.617Z,22.15
2022-08-28T17:29:53.130Z,22.06
2022-08-28T17:32:55.359Z,22.05
2022-08-28T17:36:03.431Z,22.03
2022-08-28T17:39:08.904Z,21.97
2022-08-28T17:42:14.117Z,21.86
2022-08-28T17:45:19.824Z,21.85
2022-08-28T17:48:26.324Z,21.72
2022-08-28T17:51:42.607Z,21.38
2022-08-28T17:54:47.066Z,21.45
2022-08-28T17:57:50.359Z,21.32
2022-08-28T18:00:52.703Z,21.14
2022-08-28T18:03:55.787Z,21.01
2022-08-28T18:06:58.789Z,21.03
2022-08-28T18:10:00.692Z,20.91
2022-08-28T18:13:05.272Z,20.84
2022-08-28T18:16:10.988Z,20.81
2022-08-28T18:19:14.544Z,20.73
2022-08-28T18:22:16.927Z,20.66
2022-08-28T18:25:40.681Z,20.58
2022-08-28T18:28:45.535Z,20.49
2022-08-28T18:31:47.856Z,20.48
2022-08-28T18:34:50.470Z,20.38
2022-08-28T18:37:52.891Z,20.28
2022-08-28T18:40:56.877Z,20.22
2022-08-28T18:43:59.057Z,20.17
2022-08-28T18:47:07.283Z,20.03
2022-08-28T18:50:10.246Z,19.95
2022-08-28T18:53:14.182Z,19.91
2022-08-28T18:56:16.933Z,19.91
2022-08-28T18:59:19.528Z,19.94
2022-08-28T19:02:22.290Z,19.96
2022-08-28T19:05:24.663Z,19.82
2022-08-28T19:08:28.062Z,19.85
2022-08-28T19:11:31.628Z,19.84
2022-08-28T19:14:35.643Z,19.79
2022-08-28T19:17:39.074Z,19.81
2022-08-28T19:20:41.755Z,19.81
2022-08-28T19:23:55.233Z,19.77
2022-08-28T19:26:58.237Z,19.78
2022-08-28T19:30:00.479Z,19.76
2022-08-28T19:33:07.610Z,19.84
2022-08-28T19:36:14.318Z,20.00
2022-08-28T19:39:17.865Z,19.97
2022-08-28T19:42:20.840Z,19.96
2022-08-28T19:45:23.601Z,19.88
2022-08-28T19:48:25.979Z,19.90
2022-08-28T19:51:41.779Z,19.92
2022-08-28T19:54:45.531Z,19.87
2022-08-28T19:57:49.086Z,19.80
2022-08-28T20:00:53.061Z,19.80
2022-08-28T20:03:57.185Z,19.80
2022-08-28T20:07:00.741Z,19.79
2022-08-28T20:10:03.599Z,19.80
2022-08-28T20:13:06.299Z,19.82
2022-08-28T20:16:09.037Z,19.77
2022-08-28T20:19:19.368Z,19.69
2022-08-28T20:22:22.177Z,19.71
2022-08-28T20:25:24.862Z,19.78
2022-08-28T20:28:27.117Z,19.71
2022-08-28T20:31:29.315Z,19.76
2022-08-28T20:34:31.494Z,19.77
2022-08-28T20:37:34.842Z,19.76
2022-08-28T20:40:47.455Z,19.80
2022-08-28T20:43:50.787Z,19.80
2022-08-28T20:46:54.693Z,19.86
2022-08-28T20:49:57.177Z,19.86
2022-08-28T20:53:02.847Z,19.92
2022-08-28T20:56:08.209Z,19.88
2022-08-28T20:59:10.865Z,20.06
2022-08-28T21:02:17.429Z,20.10
2022-08-28T21:05:20.031Z,20.10
2022-08-28T21:08:22.104Z,20.10
2022-08-28T21:11:25.695Z,20.15
2022-08-28T21:14:28.916Z,20.21
2022-08-28T21:17:31.553Z,20.07
2022-08-28T21:20:33.939Z,20.02
2022-08-28T21:23:36.410Z,19.85
2022-08-28T21:26:43.455Z,19.92
2022-08-28T21:29:46.254Z,19.80
2022-08-28T21:32:51.866Z,19.68
2022-08-28T21:35:54.864Z,19.38
2022-08-28T21:38:58.526Z,19.40
2022-08-28T21:42:00.914Z,19.40
2022-08-28T21:45:04.693Z,19.42
2022-08-28T21:48:08.736Z,19.36
2022-08-28T21:51:14.844Z,19.34
2022-08-28T21:54:19.871Z,19.31
2022-08-28T21:57:22.090Z,19.38
2022-08-28T22:00:24.421Z,19.31
2022-08-28T22:03:27.673Z,19.37
2022-08-28T22:06:29.965Z,19.39
2022-08-28T22:09:34.060Z,19.37
2022-08-28T22:12:36.483Z,19.44
2022-08-28T22:15:40.805Z,19.42
2022-08-28T22:18:43.062Z,19.49
2022-08-28T22:22:03.640Z,19.42
2022-08-28T22:25:06.228Z,19.42
2022-08-28T22:28:09.466Z,19.37
2022-08-28T22:31:11.519Z,19.45
2022-08-28T22:34:15.018Z,19.41
2022-08-28T22:37:23.497Z,19.35
2022-08-28T22:40:25.497Z,19.33
2022-08-28T22:43:27.836Z,19.27
2022-08-28T22:46:30.123Z,19.25
2022-08-28T22:49:32.147Z,19.26
2022-08-28T22:52:34.288Z,19.32
2022-08-28T22:55:42.725Z,19.28
2022-08-28T22:58:45.304Z,19.29
2022-08-28T23:01:47.473Z,19.32
2022-08-28T23:04:52.085Z,19.33
2022-08-28T23:07:55.617Z,19.33
2022-08-28T23:10:59.398Z,19.31
2022-08-28T23:14:01.637Z,19.32
2022-08-28T23:17:03.717Z,19.24
2022-08-28T23:20:08.249Z,19.31
2022-08-28T23:23:12.295Z,19.34
2022-08-28T23:26:18.354Z,19.38
2022-08-28T23:29:20.598Z,19.35
2022-08-28T23:32:23.057Z,19.48
2022-08-28T23:35:25.380Z,19.47
2022-08-28T23:38:28.100Z,19.55
2022-08-28T23:41:32.622Z,19.46
2022-08-28T23:44:35.141Z,19.46
2022-08-28T23:47:40.359Z,19.50
2022-08-28T23:50:43.238Z,19.52
2022-08-28T23:53:47.576Z,19.39
2022-08-28T23:56:49.821Z,19.30
2022-08-28T23:59:52.964Z,19.38
